Time;durP1;ratioP1;P1;durP2;ratioP2;P2;SDS_P1;SDS_P2;PMS_P1;PMS_P2;Temp;Humidity;BMP_temperature;BMP_pressure;BME280_temperature;BME280_humidity;BME280_pressure;Samples;Min_cycle;Max_cycle;Signal;HPM_P1;HPM_P2
2019/06/20 00:01:36;;;;;;;4.6;2.6;;;;;;;18.9;81.25391;998.4402;;;;
2019/06/20 00:04:03;;;;;;;5.2;2.5;;;;;;;18.87;81.57324;998.3953;;;;
2019/06/20 00:06:28;;;;;;;5.9;2.4;;;;;;;19.05;79.45898;998.3549;;;;
2019/06/20 00:08:54;;;;;;;4.1;2.5;;;;;;;19.05;78.62988;998.284;;;;
2019/06/20 00:11:19;;;;;;;5;2.3;;;;;;;19.05;78.47852;998.2223;;;;
2019/06/20 00:13:44;;;;;;;4.6;2.4;;;;;;;19.04;79.81934;998.193;;;;
2019/06/20 00:16:09;;;;;;;5;2.7;;;;;;;18.96;81.56836;998.1218;;;;
2019/06/20 00:18:34;;;;;;;4.3;2.3;;;;;;;19.14;80.02539;998.1085;;;;
2019/06/20 00:20:59;;;;;;;3.8;2.5;;;;;;;19.11;81.29199;998.0298;;;;
2019/06/20 00:23:26;;;;;;;4.1;2.5;;;;;;;18.93;80.75684;998.0233;;;;
2019/06/20 00:25:51;;;;;;;4.2;2.2;;;;;;;18.98;80.67285;997.9462;;;;
2019/06/20 00:28:17;;;;;;;3.4;2.1;;;;;;;19.28;77.14063;997.9711;;;;
2019/06/20 00:30:42;;;;;;;3.7;2.3;;;;;;;19.17;79.02637;997.959;;;;
2019/06/20 00:33:07;;;;;;;2.9;2.2;;;;;;;19.15;79.2666;997.9553;;;;
2019/06/20 00:35:32;;;;;;;4.2;2.2;;;;;;;19.05;80.00781;997.9874;;;;
2019/06/20 00:37:58;;;;;;;4.1;2.4;;;;;;;19.02;79.85059;998.0151;;;;
2019/06/20 00:40:22;;;;;;;4.1;2.4;;;;;;;18.91;80.35547;997.9933;;;;
2019/06/20 00:42:48;;;;;;;4.4;2.4;;;;;;;18.82;80.74707;998.0082;;;;
2019/06/20 00:45:13;;;;;;;4.2;2.3;;;;;;;18.79;80.84668;998.0269;;;;
2019/06/20 00:47:38;;;;;;;3.8;2.5;;;;;;;18.77;81.04199;998.0734;;;;
2019/06/20 00:50:03;;;;;;;3.8;2.2;;;;;;;18.88;80.05859;998.1284;;;;
2019/06/20 00:52:28;;;;;;;5.8;2.6;;;;;;;18.96;81.89551;998.1384;;;;
2019/06/20 00:54:53;;;;;;;5.1;2.6;;;;;;;19.06;81.82031;998.2166;;;;
2019/06/20 00:57:19;;;;;;;4.3;2.3;;;;;;;19.06;80.05762;998.2561;;;;
2019/06/20 00:59:44;;;;;;;3.4;2.6;;;;;;;19.12;81.02441;998.2603;;;;
2019/06/20 01:02:09;;;;;;;3.1;2.5;;;;;;;19.24;81.00098;998.301;;;;
2019/06/20 01:04:34;;;;;;;3.4;2.4;;;;;;;19.33;80.7959;998.31;;;;
2019/06/20 01:07:00;;;;;;;4.5;2.8;;;;;;;19.32;80.74707;998.3293;;;;
2019/06/20 01:09:25;;;;;;;3.8;2.5;;;;;;;19.29;80.90625;998.3486;;;;
2019/06/20 01:11:50;;;;;;;4.6;2.5;;;;;;;19.13;81.75195;998.3016;;;;
2019/06/20 01:14:16;;;;;;;5.8;2.8;;;;;;;19.12;82.21582;998.2803;;;;
2019/06/20 01:16:42;;;;;;;3.6;2.6;;;;;;;19.03;83.13281;998.2352;;;;
2019/06/20 01:19:06;;;;;;;4;2.6;;;;;;;18.9;84.11035;998.3149;;;;
2019/06/20 01:21:32;;;;;;;3.5;2.4;;;;;;;18.85;83.99707;998.3153;;;;
2019/06/20 01:23:57;;;;;;;4.6;2.5;;;;;;;18.78;84.00879;998.313;;;;
2019/06/20 01:26:22;;;;;;;4.4;2.8;;;;;;;18.89;83.87695;998.38;;;;
2019/06/20 01:28:47;;;;;;;3.1;2.3;;;;;;;18.86;83.07715;998.3697;;;;
2019/06/20 01:31:12;;;;;;;2.6;2.4;;;;;;;18.78;81.93164;998.373;;;;
2019/06/20 01:33:37;;;;;;;3;2.3;;;;;;;18.77;81.52051;998.3488;;;;
2019/06/20 01:36:02;;;;;;;2.7;2;;;;;;;18.83;80.44727;998.3049;;;;
2019/06/20 01:38:27;;;;;;;3.3;2.2;;;;;;;18.85;80.48535;998.3497;;;;
2019/06/20 01:40:52;;;;;;;3.1;2.1;;;;;;;19.05;78.66504;998.2983;;;;
2019/06/20 01:43:18;;;;;;;4.4;2.4;;;;;;;19;77.80566;998.2824;;;;
2019/06/20 01:45:43;;;;;;;2.9;2.1;;;;;;;19.07;76.60352;998.2581;;;;
2019/06/20 01:48:08;;;;;;;2.9;2;;;;;;;19.03;77.05078;998.2541;;;;
2019/06/20 01:50:33;;;;;;;4.2;2.1;;;;;;;19.17;76.60938;998.2255;;;;
2019/06/20 01:52:58;;;;;;;5;2.3;;;;;;;19.12;76.61133;998.2283;;;;
2019/06/20 01:55:23;;;;;;;3.6;2.2;;;;;;;19.15;76.81445;998.2514;;;;
2019/06/20 01:57:48;;;;;;;3.6;2.2;;;;;;;19.18;76.36523;998.2566;;;;
2019/06/20 02:00:13;;;;;;;3.2;2.3;;;;;;;19.14;76.87305;998.3022;;;;
2019/06/20 02:02:38;;;;;;;3.5;2.3;;;;;;;19.18;76.05078;998.2977;;;;
2019/06/20 02:05:04;;;;;;;3.1;2.1;;;;;;;19.28;74.8877;998.3525;;;;
2019/06/20 02:07:29;;;;;;;4.4;2.3;;;;;;;19.27;74.59473;998.3312;;;;
2019/06/20 02:09:55;;;;;;;4.3;2.2;;;;;;;19.24;75.44043;998.2906;;;;
2019/06/20 02:12:20;;;;;;;3.4;2;;;;;;;19.21;75.27246;998.3111;;;;
2019/06/20 02:14:48;;;;;;;4.2;2.4;;;;;;;19.27;75.38867;998.3455;;;;
2019/06/20 02:17:13;;;;;;;2.3;2.1;;;;;;;19.25;75.71094;998.2913;;;;
2019/06/20 02:19:38;;;;;;;3.1;2.6;;;;;;;19.34;75.90332;998.2883;;;;
2019/06/20 02:22:03;;;;;;;4.3;2.6;;;;;;;19.32;75.57324;998.3516;;;;
2019/06/20 02:24:28;;;;;;;4.1;2.6;;;;;;;19.27;75.83203;998.4398;;;;
2019/06/20 02:26:53;;;;;;;3.9;2.6;;;;;;;19.3;75.61523;998.4658;;;;
2019/06/20 02:29:18;;;;;;;4;2.6;;;;;;;19.28;75.59863;998.4531;;;;
2019/06/20 02:31:44;;;;;;;3;2.7;;;;;;;19.14;76.48828;998.4749;;;;
2019/06/20 02:34:09;;;;;;;3.8;2.7;;;;;;;19.21;76.32324;998.5311;;;;
2019/06/20 02:36:34;;;;;;;6.2;2.8;;;;;;;19.36;76;998.6082;;;;
2019/06/20 02:39:00;;;;;;;3.6;2.6;;;;;;;19.31;75.75684;998.642;;;;
2019/06/20 02:41:25;;;;;;;5.6;2.8;;;;;;;19.26;76.14453;998.6539;;;;
2019/06/20 02:43:50;;;;;;;4;2.8;;;;;;;19.2;76.25195;998.662;;;;
2019/06/20 02:46:16;;;;;;;4.6;2.8;;;;;;;19.26;76.36621;998.7001;;;;
2019/06/20 02:48:41;;;;;;;3.3;2.7;;;;;;;19.1;77.12207;998.7654;;;;
2019/06/20 02:51:06;;;;;;;4.8;3;;;;;;;19.15;76.93164;998.7928;;;;
2019/06/20 02:53:34;;;;;;;3.4;2.7;;;;;;;19.15;77.04883;998.8333;;;;
2019/06/20 02:55:59;;;;;;;4.7;2.9;;;;;;;19.05;77.70801;998.8801;;;;
2019/06/20 02:58:24;;;;;;;4.6;3;;;;;;;19.02;77.67969;998.8998;;;;
2019/06/20 03:00:49;;;;;;;3.4;2.9;;;;;;;18.94;78.10938;998.8582;;;;
2019/06/20 03:03:14;;;;;;;4.8;2.9;;;;;;;19.05;77.98828;998.9241;;;;
2019/06/20 03:05:39;;;;;;;4.5;3;;;;;;;18.9;78.28809;998.8789;;;;
2019/06/20 03:08:04;;;;;;;4.4;3;;;;;;;18.89;78.77832;998.8566;;;;
2019/06/20 03:10:29;;;;;;;4.8;3.3;;;;;;;18.88;78.97461;998.8519;;;;
2019/06/20 03:12:54;;;;;;;4.7;2.9;;;;;;;18.94;78.43555;998.9295;;;;
2019/06/20 03:15:22;;;;;;;5.7;2.8;;;;;;;18.92;78.5957;998.9631;;;;
2019/06/20 03:17:47;;;;;;;4.2;2.9;;;;;;;18.96;78.75586;998.9543;;;;
2019/06/20 03:20:12;;;;;;;4;3.1;;;;;;;18.91;79.09668;998.9288;;;;
2019/06/20 03:22:37;;;;;;;5.6;3;;;;;;;18.82;79.89551;998.9526;;;;
2019/06/20 03:25:03;;;;;;;4;3.1;;;;;;;18.98;79.53906;998.9028;;;;
2019/06/20 03:27:28;;;;;;;5.3;2.9;;;;;;;18.8;80.04492;998.8697;;;;
2019/06/20 03:29:54;;;;;;;4.5;3.2;;;;;;;18.84;79.80664;999.0037;;;;
2019/06/20 03:32:19;;;;;;;6;3.2;;;;;;;18.94;79.42773;999.045;;;;
2019/06/20 03:34:44;;;;;;;7.7;3.1;;;;;;;18.95;79.39648;999.1001;;;;
2019/06/20 03:37:09;;;;;;;3.3;2.7;;;;;;;18.99;79.42578;999.163;;;;
2019/06/20 03:39:34;;;;;;;4.4;3;;;;;;;18.99;79.25098;999.207;;;;
2019/06/20 03:41:59;;;;;;;3.5;3;;;;;;;19.06;79.25098;999.2031;;;;
2019/06/20 03:44:24;;;;;;;6.9;3.3;;;;;;;19.11;79.42383;999.1742;;;;
2019/06/20 03:46:50;;;;;;;4.5;3.2;;;;;;;19.14;79.57031;999.1957;;;;
2019/06/20 03:49:15;;;;;;;6;3.4;;;;;;;19.25;79.51855;999.2072;;;;
2019/06/20 03:51:40;;;;;;;6.6;3.8;;;;;;;19.12;80.17285;999.2068;;;;
2019/06/20 03:54:07;;;;;;;4.7;3.5;;;;;;;19.12;80.18457;999.1886;;;;
2019/06/20 03:56:32;;;;;;;5.2;3.3;;;;;;;19.2;80;999.1531;;;;
2019/06/20 03:58:58;;;;;;;5.6;3.2;;;;;;;19.18;79.38867;999.2186;;;;
2019/06/20 04:02:28;;;;;;;5.5;3.4;;;;;;;19.1;80.30957;999.1124;;;;
2019/06/20 04:04:53;;;;;;;4.4;3.3;;;;;;;19.36;79.16406;999.1205;;;;
2019/06/20 04:07:18;;;;;;;5.7;3.1;;;;;;;19.38;79.12207;999.1941;;;;
2019/06/20 04:09:43;;;;;;;4.7;3.4;;;;;;;19.48;78.76563;999.1213;;;;
2019/06/20 04:12:09;;;;;;;5;3.2;;;;;;;19.44;79.17969;999.0586;;;;
2019/06/20 04:14:34;;;;;;;3.6;3.3;;;;;;;19.39;79.37891;999.0112;;;;
2019/06/20 04:17:01;;;;;;;5.8;3.6;;;;;;;19.41;79.43066;999.0457;;;;
2019/06/20 04:19:26;;;;;;;5.2;3.6;;;;;;;19.33;79.75488;999.055;;;;
2019/06/20 04:21:51;;;;;;;6.6;3.6;;;;;;;19.29;80.24902;999.0758;;;;
2019/06/20 04:24:16;;;;;;;6.8;3.7;;;;;;;19.25;80.37109;999.0854;;;;
2019/06/20 04:26:41;;;;;;;5.7;3.8;;;;;;;19.24;80.62598;999.0505;;;;
2019/06/20 04:29:06;;;;;;;4.4;3.8;;;;;;;19.26;80.37402;999.0862;;;;
2019/06/20 04:31:32;;;;;;;5.8;3.9;;;;;;;19.44;79.76367;999.086;;;;
2019/06/20 04:33:57;;;;;;;5.6;3.8;;;;;;;19.32;80.2207;999.063;;;;
2019/06/20 04:36:22;;;;;;;6.3;3.9;;;;;;;19.45;79.56543;999.0254;;;;
2019/06/20 04:38:47;;;;;;;5.3;3.5;;;;;;;19.48;79.43164;999.0686;;;;
2019/06/20 04:41:12;;;;;;;5;3.4;;;;;;;19.48;79.51367;999.0726;;;;
2019/06/20 04:43:39;;;;;;;6.6;3.9;;;;;;;19.6;78.58984;999.1649;;;;
2019/06/20 04:46:09;;;;;;;5;3.5;;;;;;;19.75;78.13574;999.1559;;;;
2019/06/20 04:48:29;;;;;;;4.7;3.4;;;;;;;19.55;78.70898;999.1859;;;;
2019/06/20 04:50:54;;;;;;;5.2;3.8;;;;;;;19.86;77.50195;999.1887;;;;
2019/06/20 04:53:20;;;;;;;5.8;3.4;;;;;;;19.84;77.92969;999.2227;;;;
2019/06/20 04:55:45;;;;;;;5.1;3.3;;;;;;;19.83;78.16016;999.2454;;;;
2019/06/20 04:58:11;;;;;;;6.1;3.5;;;;;;;19.87;77.16211;999.2551;;;;
2019/06/20 05:00:37;;;;;;;5.7;3.6;;;;;;;19.93;76.71777;999.2545;;;;
2019/06/20 05:03:02;;;;;;;5;3.4;;;;;;;19.97;76.53613;999.2967;;;;
2019/06/20 05:05:27;;;;;;;5.5;3.6;;;;;;;20.33;75.49805;999.2636;;;;
2019/06/20 05:07:52;;;;;;;4.6;3.4;;;;;;;20.29;75.49219;999.2737;;;;
2019/06/20 05:10:17;;;;;;;4.4;3.1;;;;;;;20.5;74.88379;999.2411;;;;
2019/06/20 05:12:42;;;;;;;4.8;3.3;;;;;;;20.72;73.94922;999.2283;;;;
2019/06/20 05:15:07;;;;;;;4.7;3.2;;;;;;;21.12;72.32617;999.2453;;;;
2019/06/20 05:17:34;;;;;;;5.5;3.2;;;;;;;21.11;72.15039;999.1983;;;;
2019/06/20 05:19:59;;;;;;;5.6;2.9;;;;;;;21.26;71.94922;999.2202;;;;
2019/06/20 05:22:24;;;;;;;4.2;3.1;;;;;;;21.47;71.02051;999.2189;;;;
2019/06/20 05:24:49;;;;;;;5;2.9;;;;;;;21.64;69.95801;999.2123;;;;
2019/06/20 05:27:14;;;;;;;6.5;2.8;;;;;;;21.72;70.12207;999.262;;;;
2019/06/20 05:29:39;;;;;;;5.7;3.3;;;;;;;22.04;68.68164;999.2397;;;;
2019/06/20 05:32:04;;;;;;;5.1;3;;;;;;;22.28;67.62402;999.2888;;;;
2019/06/20 05:34:29;;;;;;;5.4;3;;;;;;;22.42;67.11719;999.2908;;;;
2019/06/20 05:36:55;;;;;;;5.5;3;;;;;;;22.85;65.80371;999.2449;;;;
2019/06/20 05:39:20;;;;;;;6.2;3;;;;;;;22.38;67.35742;999.3186;;;;
2019/06/20 05:41:45;;;;;;;4.7;2.9;;;;;;;22.92;65.19043;999.2989;;;;
2019/06/20 05:44:10;;;;;;;5;3;;;;;;;22.41;67.26758;999.353;;;;
2019/06/20 05:46:35;;;;;;;5.9;3.1;;;;;;;22.56;66.78418;999.3785;;;;
2019/06/20 05:49:00;;;;;;;6;3.2;;;;;;;22.82;65.7168;999.3658;;;;
2019/06/20 05:51:25;;;;;;;6.2;3.7;;;;;;;22.78;65.95801;999.3948;;;;
2019/06/20 05:53:50;;;;;;;5.6;3.3;;;;;;;22.44;66.71875;999.4161;;;;
2019/06/20 05:56:15;;;;;;;5.2;3.2;;;;;;;22.75;65.68262;999.3918;;;;
2019/06/20 05:58:40;;;;;;;3.9;3.3;;;;;;;22.36;66.87109;999.4161;;;;
2019/06/20 06:01:05;;;;;;;6.2;3.7;;;;;;;22.26;67.7627;999.414;;;;
2019/06/20 06:03:31;;;;;;;5.8;3.4;;;;;;;22.78;66.06348;999.4633;;;;
2019/06/20 06:05:56;;;;;;;7;3.2;;;;;;;22.37;66.56738;999.4697;;;;
2019/06/20 06:08:21;;;;;;;4.5;3;;;;;;;22.35;66.78906;999.5396;;;;
2019/06/20 06:10:47;;;;;;;7.7;3.2;;;;;;;22.1;67.25586;999.5189;;;;
2019/06/20 06:13:12;;;;;;;5.8;3.4;;;;;;;21.9;68.5293;999.5063;;;;
2019/06/20 06:15:37;;;;;;;4.9;3.3;;;;;;;21.77;69.1084;999.5818;;;;
2019/06/20 06:18:02;;;;;;;4.9;3.3;;;;;;;21.88;68.65625;999.5631;;;;
2019/06/20 06:20:27;;;;;;;5.2;3.5;;;;;;;21.97;68.6709;999.5725;;;;
2019/06/20 06:22:52;;;;;;;5.7;3.3;;;;;;;22.19;68.0459;999.6213;;;;
2019/06/20 06:25:18;;;;;;;5.2;3.4;;;;;;;22.34;67.66895;999.5879;;;;
2019/06/20 06:27:43;;;;;;;5.5;3.1;;;;;;;22.46;67.44043;999.6156;;;;
2019/06/20 06:30:08;;;;;;;6;3.1;;;;;;;22.75;66.14355;999.6033;;;;
2019/06/20 06:32:33;;;;;;;4.6;3.4;;;;;;;22.76;66.4502;999.572;;;;
2019/06/20 06:34:58;;;;;;;5.9;3;;;;;;;23.41;64.15332;999.5745;;;;
2019/06/20 06:37:23;;;;;;;4.6;2.9;;;;;;;23.26;64.69824;999.5257;;;;
2019/06/20 06:39:48;;;;;;;5.8;3.2;;;;;;;23.17;64.97949;999.5087;;;;
2019/06/20 06:42:13;;;;;;;4.9;3.1;;;;;;;23.65;63.77637;999.4612;;;;
2019/06/20 06:44:39;;;;;;;5.1;3.4;;;;;;;24.01;61.69043;999.4683;;;;
2019/06/20 06:47:04;;;;;;;4.5;3.3;;;;;;;23.94;61.96387;999.5027;;;;
2019/06/20 06:49:29;;;;;;;4.5;3.1;;;;;;;23.46;63.62988;999.5356;;;;
2019/06/20 06:51:54;;;;;;;6;3.3;;;;;;;23.32;64.62305;999.568;;;;
2019/06/20 06:54:19;;;;;;;4.7;2.8;;;;;;;24.08;62.4209;999.5549;;;;
2019/06/20 06:56:44;;;;;;;3.8;3;;;;;;;25.46;58.125;999.5919;;;;
2019/06/20 06:59:09;;;;;;;6.9;2.8;;;;;;;25.68;57.0166;999.5616;;;;
2019/06/20 07:01:34;;;;;;;3.8;2.8;;;;;;;26.06;55.91309;999.5254;;;;
2019/06/20 07:03:59;;;;;;;3.2;2.5;;;;;;;28;49.96289;999.5457;;;;
2019/06/20 07:06:24;;;;;;;4.6;2.6;;;;;;;26.95;50.9873;999.5076;;;;
2019/06/20 07:08:50;;;;;;;5.8;2.7;;;;;;;28.05;47.93164;999.4453;;;;
2019/06/20 07:11:15;;;;;;;3.9;2.5;;;;;;;27.64;49.18457;999.5334;;;;
2019/06/20 07:13:40;;;;;;;5.1;2.7;;;;;;;28.41;46.94531;999.5098;;;;
2019/06/20 07:16:05;;;;;;;3.4;2.6;;;;;;;29.2;45.4873;999.4854;;;;
2019/06/20 07:18:30;;;;;;;4.1;2.6;;;;;;;30.05;42.62891;999.5056;;;;
2019/06/20 07:20:55;;;;;;;4.1;2.2;;;;;;;30.26;41.87109;999.5144;;;;
2019/06/20 07:23:20;;;;;;;2.9;2;;;;;;;30.83;40.74902;999.5609;;;;
2019/06/20 07:25:46;;;;;;;3.2;2.3;;;;;;;30.04;41.6709;999.593;;;;
2019/06/20 07:28:11;;;;;;;4.6;2.5;;;;;;;30.44;41.24121;999.5611;;;;
2019/06/20 07:30:36;;;;;;;3.5;2.3;;;;;;;28.26;45.4873;999.5637;;;;
2019/06/20 07:33:01;;;;;;;4.4;2.5;;;;;;;27.84;47.13574;999.5053;;;;
2019/06/20 07:35:26;;;;;;;5.4;2.5;;;;;;;27.79;47.34375;999.56;;;;
2019/06/20 07:37:51;;;;;;;3.9;2.7;;;;;;;28.34;46.01953;999.6102;;;;
2019/06/20 07:40:16;;;;;;;3.2;2.2;;;;;;;29.73;42.31152;999.6072;;;;
2019/06/20 07:42:41;;;;;;;3.7;2.4;;;;;;;29.41;43.52441;999.6028;;;;
2019/06/20 07:45:06;;;;;;;2.9;2.4;;;;;;;29.6;42.5625;999.6889;;;;
2019/06/20 07:47:31;;;;;;;3.7;2.3;;;;;;;29.8;41.9834;999.6247;;;;
2019/06/20 07:49:57;;;;;;;3.6;2.2;;;;;;;30.03;41.80176;999.6781;;;;
2019/06/20 07:52:22;;;;;;;3.8;2.3;;;;;;;29.28;43.0459;999.5837;;;;
2019/06/20 07:54:47;;;;;;;5.9;2.3;;;;;;;27.87;46.28125;999.5489;;;;
2019/06/20 07:57:12;;;;;;;3.2;2.3;;;;;;;27.72;47.0752;999.5178;;;;
2019/06/20 07:59:37;;;;;;;4.3;2.4;;;;;;;27.7;47.17969;999.4819;;;;
2019/06/20 08:02:02;;;;;;;3.6;2.4;;;;;;;27.08;48.96973;999.5132;;;;
2019/06/20 08:04:27;;;;;;;3.7;2.4;;;;;;;28.16;45.55957;999.5073;;;;
2019/06/20 08:06:52;;;;;;;3.3;2.1;;;;;;;30.77;40.48047;999.4927;;;;
2019/06/20 08:09:18;;;;;;;3.9;2.1;;;;;;;29.98;41.42578;999.4811;;;;
2019/06/20 08:11:43;;;;;;;3.3;2.2;;;;;;;30.29;40.8916;999.4111;;;;
2019/06/20 08:14:08;;;;;;;4.9;2.6;;;;;;;30.02;41.82422;999.4431;;;;
2019/06/20 08:16:34;;;;;;;8.1;2.6;;;;;;;31.87;38.35645;999.4626;;;;
2019/06/20 08:18:59;;;;;;;3.6;2.2;;;;;;;32.82;36.16113;999.46;;;;
2019/06/20 08:21:24;;;;;;;2.6;2;;;;;;;31.87;37.71973;999.4588;;;;
2019/06/20 08:23:49;;;;;;;3;2;;;;;;;33.27;35.16113;999.4774;;;;
2019/06/20 08:26:14;;;;;;;3.2;2;;;;;;;31.93;36.61816;999.442;;;;
2019/06/20 08:28:39;;;;;;;2.8;2.1;;;;;;;31.9;37.16895;999.509;;;;
2019/06/20 08:31:09;;;;;;;3.2;2.3;;;;;;;32.2;36.8457;999.5123;;;;
2019/06/20 08:33:34;;;;;;;3;2.1;;;;;;;32.09;36.42773;999.5129;;;;
2019/06/20 08:35:59;;;;;;;4;2.1;;;;;;;32.47;35.2666;999.5109;;;;
2019/06/20 08:38:24;;;;;;;4.2;2.4;;;;;;;30.68;39.17773;999.4797;;;;
2019/06/20 08:40:49;;;;;;;4.4;2.1;;;;;;;30.28;40.18555;999.4689;;;;
2019/06/20 08:43:15;;;;;;;3.4;2.5;;;;;;;29.03;42.5918;999.5345;;;;
2019/06/20 08:45:39;;;;;;;2.7;2.1;;;;;;;28.26;44.33105;999.5178;;;;
2019/06/20 08:48:05;;;;;;;4.5;2.2;;;;;;;28.94;43.25293;999.4851;;;;
2019/06/20 08:50:30;;;;;;;4.2;2.3;;;;;;;30.04;40.46289;999.4568;;;;
2019/06/20 08:52:56;;;;;;;3.6;2.1;;;;;;;29.77;41.25195;999.4322;;;;
2019/06/20 08:55:22;;;;;;;4;2.4;;;;;;;29.35;42.49219;999.466;;;;
2019/06/20 08:57:47;;;;;;;2.8;2.3;;;;;;;30.95;39.45313;999.4333;;;;
2019/06/20 09:00:12;;;;;;;3.9;2.2;;;;;;;32.82;36.08887;999.3969;;;;
2019/06/20 09:02:37;;;;;;;4.8;2.4;;;;;;;32.92;35.0127;999.3411;;;;
2019/06/20 09:05:02;;;;;;;3.6;2.1;;;;;;;32.52;35.89648;999.2719;;;;
2019/06/20 09:07:29;;;;;;;3;1.8;;;;;;;31.78;35.75391;999.3387;;;;
2019/06/20 09:09:54;;;;;;;4.5;2.1;;;;;;;31.55;36.17969;999.3665;;;;
2019/06/20 09:12:19;;;;;;;4.7;2.2;;;;;;;30.8;38.20605;999.31;;;;
2019/06/20 09:14:45;;;;;;;3.1;2;;;;;;;30.39;38.18262;999.3334;;;;
2019/06/20 09:17:10;;;;;;;4;1.8;;;;;;;29.92;39.88965;999.4727;;;;
2019/06/20 09:19:36;;;;;;;4.6;1.9;;;;;;;29.16;41.88867;999.4908;;;;
2019/06/20 09:22:00;;;;;;;3.3;1.8;;;;;;;29.43;41.47168;999.5209;;;;
2019/06/20 09:24:25;;;;;;;3.5;2.1;;;;;;;29.99;40.14746;999.5041;;;;
2019/06/20 09:26:50;;;;;;;2.1;1.8;;;;;;;29.87;40.62695;999.5436;;;;
2019/06/20 09:29:17;;;;;;;2.7;2;;;;;;;29.95;40.77734;999.5305;;;;
2019/06/20 09:31:42;;;;;;;4.1;2.2;;;;;;;29.87;41.21289;999.5825;;;;
2019/06/20 09:34:07;;;;;;;2.9;2.1;;;;;;;30.45;39.56543;999.5466;;;;
2019/06/20 09:36:34;;;;;;;2.6;2;;;;;;;29.89;40.40137;999.5901;;;;
2019/06/20 09:38:59;;;;;;;3.2;2.2;;;;;;;28.73;42.81445;999.5881;;;;
2019/06/20 09:41:25;;;;;;;4.4;2.5;;;;;;;28.2;44.82617;999.6142;;;;
2019/06/20 09:43:51;;;;;;;4.7;2.2;;;;;;;28.42;43.88086;999.5892;;;;
2019/06/20 09:46:16;;;;;;;3.8;2.5;;;;;;;28.19;44.59766;999.5655;;;;
2019/06/20 09:48:41;;;;;;;3.3;2.1;;;;;;;28.39;44.83203;999.6295;;;;
2019/06/20 09:51:06;;;;;;;3;2.1;;;;;;;28.88;42.45801;999.6467;;;;
2019/06/20 09:53:31;;;;;;;2.8;2;;;;;;;28.81;42.11816;999.5544;;;;
2019/06/20 09:55:56;;;;;;;3;2;;;;;;;29.14;42.1123;999.593;;;;
2019/06/20 09:58:21;;;;;;;2.1;1.8;;;;;;;28.43;42.20215;999.5725;;;;
2019/06/20 10:00:46;;;;;;;3.8;1.8;;;;;;;28.87;41.0498;999.5894;;;;
2019/06/20 10:03:11;;;;;;;2.5;1.8;;;;;;;29.23;40.43848;999.6142;;;;
2019/06/20 10:05:36;;;;;;;4.1;1.7;;;;;;;29.53;39.7002;999.5314;;;;
2019/06/20 10:08:02;;;;;;;3.2;2;;;;;;;30.01;39.80176;999.4843;;;;
2019/06/20 10:10:27;;;;;;;2.8;2;;;;;;;31.23;38.0625;999.408;;;;
2019/06/20 10:12:52;;;;;;;2.5;2.1;;;;;;;29.93;38.99316;999.4886;;;;
2019/06/20 10:15:17;;;;;;;3.4;2;;;;;;;30.37;39.12695;999.4644;;;;
2019/06/20 10:17:42;;;;;;;4;2.2;;;;;;;30.29;39.19141;999.525;;;;
2019/06/20 10:20:07;;;;;;;2.3;1.7;;;;;;;28.7;41.45117;999.5705;;;;
2019/06/20 10:22:33;;;;;;;3.7;2;;;;;;;29.43;40.48047;999.6701;;;;
2019/06/20 10:24:57;;;;;;;3.6;2.1;;;;;;;30.48;38.51465;999.4861;;;;
2019/06/20 10:27:23;;;;;;;4;2.1;;;;;;;30.42;38.20898;999.3309;;;;
2019/06/20 10:29:49;;;;;;;3.1;2;;;;;;;30.38;38.75781;999.3655;;;;
2019/06/20 10:32:15;;;;;;;3.1;1.9;;;;;;;29.96;39.16309;999.4675;;;;
2019/06/20 10:34:40;;;;;;;3.1;1.8;;;;;;;29.74;39.38379;999.4678;;;;
2019/06/20 10:37:06;;;;;;;3.5;2;;;;;;;29.2;40.94922;999.6545;;;;
2019/06/20 10:39:31;;;;;;;3.3;2;;;;;;;29.08;41.22461;999.716;;;;
2019/06/20 10:41:58;;;;;;;2.6;2;;;;;;;28.59;42.94434;999.7316;;;;
2019/06/20 10:44:23;;;;;;;4.4;2.2;;;;;;;28.47;43.71973;999.6756;;;;
2019/06/20 10:46:48;;;;;;;3.6;2.1;;;;;;;28.08;43.80078;999.5996;;;;
2019/06/20 10:49:13;;;;;;;4.3;2.3;;;;;;;27.74;44.63672;999.6114;;;;
2019/06/20 10:51:43;;;;;;;3.8;2.3;;;;;;;27.55;46.01074;999.6336;;;;
2019/06/20 10:54:03;;;;;;;5.2;2.3;;;;;;;27.68;45.55957;999.724;;;;
2019/06/20 10:56:29;;;;;;;3.6;2.2;;;;;;;27.82;45.06152;999.7202;;;;
2019/06/20 10:58:54;;;;;;;5;2.3;;;;;;;27.84;45.55176;999.7477;;;;
2019/06/20 11:01:19;;;;;;;3.5;2.4;;;;;;;27.28;47.54004;999.8555;;;;
2019/06/20 11:03:44;;;;;;;3.2;2.4;;;;;;;26.64;50.01367;999.7213;;;;
2019/06/20 11:06:09;;;;;;;3.1;2.3;;;;;;;26.67;51.42969;999.7603;;;;
2019/06/20 11:08:35;;;;;;;4.8;2.7;;;;;;;26.63;51.72363;999.8301;;;;
2019/06/20 11:10:59;;;;;;;3.5;2.9;;;;;;;26.26;53.24609;999.8998;;;;
2019/06/20 11:13:25;;;;;;;5.6;2.9;;;;;;;25.75;55.05762;999.8954;;;;
2019/06/20 11:15:50;;;;;;;5.2;3.3;;;;;;;25.32;57.64453;999.9064;;;;
2019/06/20 11:18:15;;;;;;;4.9;3.2;;;;;;;25.07;59.64844;999.9878;;;;
2019/06/20 11:20:40;;;;;;;4.8;3.4;;;;;;;24.25;61.95996;999.983;;;;
2019/06/20 11:23:05;;;;;;;6.5;3.5;;;;;;;24.4;62.67871;999.9631;;;;
2019/06/20 11:25:30;;;;;;;5.8;3.2;;;;;;;24.11;63.23926;999.9003;;;;
2019/06/20 11:27:55;;;;;;;5.1;3;;;;;;;24.48;60.89355;999.907;;;;
2019/06/20 11:30:21;;;;;;;5.5;3;;;;;;;24.23;59.74805;999.8289;;;;
2019/06/20 11:32:46;;;;;;;3.5;2.1;;;;;;;23.98;57.51855;999.861;;;;
2019/06/20 11:35:14;;;;;;;3.7;2.3;;;;;;;24.09;58.38379;999.8486;;;;
2019/06/20 11:37:39;;;;;;;2.4;2.1;;;;;;;24.02;58.96484;999.8351;;;;
2019/06/20 11:40:07;;;;;;;3.6;2.2;;;;;;;23.91;57.79395;999.7742;;;;
2019/06/20 11:42:33;;;;;;;4.1;2.2;;;;;;;23.86;57.88184;999.7949;;;;
2019/06/20 11:44:58;;;;;;;3.5;2;;;;;;;23.66;57.4082;999.8322;;;;
2019/06/20 11:47:23;;;;;;;2.7;2;;;;;;;24.17;57.05957;999.7507;;;;
2019/06/20 11:49:48;;;;;;;3.6;2.1;;;;;;;24.45;56.29199;999.7233;;;;
2019/06/20 11:52:13;;;;;;;3.2;2.1;;;;;;;24.7;54.5625;999.6877;;;;
2019/06/20 11:54:38;;;;;;;3.1;2;;;;;;;25.24;53.23047;999.6661;;;;
2019/06/20 11:57:03;;;;;;;2.2;1.6;;;;;;;25.3;51.93555;999.6262;;;;
2019/06/20 11:59:29;;;;;;;2.3;1.7;;;;;;;25.48;51.08008;999.5934;;;;
2019/06/20 12:01:54;;;;;;;2.7;1.6;;;;;;;24.9;51.85449;999.6113;;;;
2019/06/20 12:04:19;;;;;;;3.9;1.7;;;;;;;24.71;52.48145;999.671;;;;
2019/06/20 12:06:45;;;;;;;3.5;1.6;;;;;;;24.6;53.75879;999.6903;;;;
2019/06/20 12:09:10;;;;;;;2.5;1.7;;;;;;;25.26;52.1084;999.6401;;;;
2019/06/20 12:11:35;;;;;;;4.2;1.9;;;;;;;25.47;51.72949;999.6097;;;;
2019/06/20 12:14:00;;;;;;;3.5;1.6;;;;;;;24.95;51.35059;999.5901;;;;
2019/06/20 12:16:25;;;;;;;1.9;1.5;;;;;;;25.3;50.21973;999.5477;;;;
2019/06/20 12:18:50;;;;;;;3.5;1.5;;;;;;;24.85;51.375;999.6573;;;;
2019/06/20 12:21:15;;;;;;;2.3;1.4;;;;;;;24.8;51.94824;999.5316;;;;
2019/06/20 12:23:41;;;;;;;3.1;1.5;;;;;;;24.66;52.45215;999.498;;;;
2019/06/20 12:26:06;;;;;;;3.3;1.7;;;;;;;25.01;51.83105;999.57;;;;
2019/06/20 12:28:31;;;;;;;2.7;1.6;;;;;;;25.11;51.39453;999.5671;;;;
2019/06/20 12:30:56;;;;;;;1.9;1.5;;;;;;;25.03;51.52539;999.6437;;;;
2019/06/20 12:33:21;;;;;;;2.1;1.5;;;;;;;25.2;53.30957;999.6124;;;;
2019/06/20 12:35:46;;;;;;;4;1.8;;;;;;;25.03;53.25293;999.6194;;;;
2019/06/20 12:38:11;;;;;;;1.9;1.7;;;;;;;25.14;53.1123;999.6447;;;;
2019/06/20 12:40:36;;;;;;;2.2;1.5;;;;;;;24.72;53.76074;999.6262;;;;
2019/06/20 12:43:01;;;;;;;3.1;1.6;;;;;;;24.48;54.01563;999.6027;;;;
2019/06/20 12:45:27;;;;;;;2.4;1.8;;;;;;;24.61;54.54004;999.4803;;;;
2019/06/20 12:47:52;;;;;;;2.9;1.7;;;;;;;24.64;55.20508;999.428;;;;
2019/06/20 12:50:17;;;;;;;2.7;1.6;;;;;;;24.83;54.44727;999.4175;;;;
2019/06/20 12:52:42;;;;;;;3;1.8;;;;;;;24.55;54.93262;999.4053;;;;
2019/06/20 12:55:07;;;;;;;3.4;1.8;;;;;;;24.33;55.41504;999.4487;;;;
2019/06/20 12:57:32;;;;;;;3;1.7;;;;;;;24.43;55.12012;999.4514;;;;
2019/06/20 12:59:57;;;;;;;2.8;1.8;;;;;;;24.48;54.98535;999.4643;;;;
2019/06/20 13:02:22;;;;;;;3.6;1.9;;;;;;;24.56;55.93945;999.44;;;;
2019/06/20 13:04:47;;;;;;;3.6;1.5;;;;;;;24.67;55.20801;999.3748;;;;
2019/06/20 13:07:12;;;;;;;3.1;1.7;;;;;;;24.58;55.18555;999.3516;;;;
2019/06/20 13:09:37;;;;;;;2.6;1.7;;;;;;;24.57;54.88867;999.369;;;;
2019/06/20 13:12:03;;;;;;;3.6;1.9;;;;;;;24.87;53.42383;999.3434;;;;
2019/06/20 13:14:28;;;;;;;2.3;1.7;;;;;;;24.57;53.87305;999.2587;;;;
2019/06/20 13:16:53;;;;;;;3;1.8;;;;;;;24.92;53.48828;999.1792;;;;
2019/06/20 13:19:18;;;;;;;2.6;1.8;;;;;;;24.95;53.63477;999.1458;;;;
2019/06/20 13:21:43;;;;;;;2.7;1.9;;;;;;;25.27;53.13965;999.1931;;;;
2019/06/20 13:24:08;;;;;;;3.7;1.9;;;;;;;25.45;52.87695;999.2794;;;;
2019/06/20 13:26:33;;;;;;;2.5;1.9;;;;;;;25.52;52.98047;999.3206;;;;
2019/06/20 13:29:01;;;;;;;2.8;2;;;;;;;25.45;53.00781;999.3117;;;;
2019/06/20 13:31:26;;;;;;;2.7;1.8;;;;;;;25.24;53.46875;999.3381;;;;
2019/06/20 13:33:51;;;;;;;2.9;1.8;;;;;;;24.87;54.55957;999.3423;;;;
2019/06/20 13:36:16;;;;;;;3.3;1.9;;;;;;;24.91;54.7998;999.3308;;;;
2019/06/20 13:38:41;;;;;;;3.1;1.9;;;;;;;25.1;53.99512;999.3619;;;;
2019/06/20 13:41:09;;;;;;;2.9;2.2;;;;;;;24.69;55.05762;999.4133;;;;
2019/06/20 13:43:34;;;;;;;5.9;2.3;;;;;;;24.83;55.31055;999.4348;;;;
2019/06/20 13:46:00;;;;;;;3.6;2.1;;;;;;;25.07;54.67871;999.4148;;;;
2019/06/20 13:48:25;;;;;;;3;1.8;;;;;;;25.39;53.56836;999.3942;;;;
2019/06/20 13:50:50;;;;;;;2.8;1.9;;;;;;;25.11;54.12695;999.4033;;;;
2019/06/20 13:53:15;;;;;;;3.3;1.8;;;;;;;24.69;55.33008;999.4433;;;;
2019/06/20 13:55:40;;;;;;;3;2.2;;;;;;;24.84;55.50098;999.5173;;;;
2019/06/20 13:58:05;;;;;;;3.1;2;;;;;;;24.91;54.96582;999.4612;;;;
2019/06/20 14:00:30;;;;;;;3.4;2;;;;;;;24.55;55.84375;999.4531;;;;
2019/06/20 14:02:55;;;;;;;3;1.9;;;;;;;24.75;55.96289;999.4333;;;;
2019/06/20 14:05:20;;;;;;;3.2;2;;;;;;;24.76;56.2373;999.4391;;;;
2019/06/20 14:07:46;;;;;;;3.5;2.2;;;;;;;25.22;55.06348;999.3483;;;;
2019/06/20 14:10:11;;;;;;;3.6;2.2;;;;;;;24.97;55.4707;999.2867;;;;
2019/06/20 14:12:36;;;;;;;3.8;2.1;;;;;;;24.83;55.76074;999.2999;;;;
2019/06/20 14:15:01;;;;;;;3.4;2.1;;;;;;;24.89;55.94531;999.2769;;;;
2019/06/20 14:17:26;;;;;;;2.9;2.1;;;;;;;25.14;54.42578;999.2349;;;;